createdAt,value
2022-08-31T00:00:00.000Z,18.38
2022-08-31T00:15:00.000Z,18.1
2022-08-31T00:30:00.000Z,18.06
2022-08-31T00:45:00.000Z,17.82
2022-08-31T01:00:00.000Z,17.63
2022-08-31T01:15:00.000Z,17.61
2022-08-31T01:30:00.000Z,17.62
2022-08-31T01:45:00.000Z,17.8
2022-08-31T02:00:00.000Z,17.8
2022-08-31T02:15:00.000Z,17.53
2022-08-31T02:30:00.000Z,17.65
2022-08-31T02:45:00.000Z,17.55
2022-08-31T03:00:00.000Z,17.54
2022-08-31T03:30:00.000Z,17.58
2022-08-31T03:30:00.000Z,17.53
2022-08-31T03:45:00.000Z,17.65
2022-08-31T04:00:00.000Z,17.64
2022-08-31T04:30:00.000Z,17.7
2022-08-31T04:30:00.000Z,17.72
2022-08-31T04:45:00.000Z,17.72
2022-08-31T05:00:00.000Z,17.68
2022-08-31T05:15:00.000Z,17.56
2022-08-31T05:30:00.000Z,17.67
2022-08-31T05:45:00.000Z,17.67
2022-08-31T06:00:00.000Z,17.37
2022-08-31T06:15:00.000Z,17.17
2022-08-31T06:30:00.000Z,16.97
2022-08-31T06:45:00.000Z,17.13
2022-08-31T07:00:00.000Z,17.32
2022-08-31T07:15:00.000Z,17.49
2022-08-31T07:30:00.000Z,17.81
2022-08-31T07:45:00.000Z,17.87
2022-08-31T08:00:00.000Z,17.93
2022-08-31T08:15:00.000Z,17.98
2022-08-31T08:30:00.000Z,17.99
2022-08-31T08:45:00.000Z,18
2022-08-31T09:00:00.000Z,18.22
2022-08-31T09:15:00.000Z,18.38
2022-08-31T09:30:00.000Z,18.53
2022-08-31T09:45:00.000Z,18.31
2022-08-31T10:00:00.000Z,18.37
2022-08-31T10:15:00.000Z,18.47
2022-08-31T10:30:00.000Z,18.48
2022-08-31T10:45:00.000Z,18.57
2022-08-31T11:00:00.000Z,18.61
2022-08-31T11:15:00.000Z,18.71
2022-08-31T11:30:00.000Z,18.97
2022-08-31T11:45:00.000Z,19.22
2022-08-31T12:00:00.000Z,19.71
2022-08-31T12:15:00.000Z,19.83
2022-08-31T12:30:00.000Z,20.1
2022-08-31T12:45:00.000Z,20.23
2022-08-31T13:00:00.000Z,20.4
2022-08-31T13:15:00.000Z,20.69
2022-08-31T13:30:00.000Z,20.62
2022-08-31T13:45:00.000Z,20.06
2022-08-31T14:00:00.000Z,19.65
2022-08-31T14:15:00.000Z,19.6
2022-08-31T14:30:00.000Z,19.71
2022-08-31T14:45:00.000Z,19.75
2022-08-31T15:00:00.000Z,19.93
2022-08-31T15:15:00.000Z,19.82
2022-08-31T15:30:00.000Z,19.71
2022-08-31T15:45:00.000Z,19.79
2022-08-31T16:00:00.000Z,19.41
2022-08-31T16:15:00.000Z,18.46
2022-08-31T16:30:00.000Z,17.96
2022-08-31T16:45:00.000Z,18.02
2022-08-31T17:00:00.000Z,17.78
2022-08-31T17:15:00.000Z,17.65
2022-08-31T17:30:00.000Z,17.6
2022-08-31T17:45:00.000Z,17.34
2022-08-31T18:00:00.000Z,17.24
2022-08-31T18:15:00.000Z,17.19
2022-08-31T18:30:00.000Z,17.27
2022-08-31T18:45:00.000Z,17.23
2022-08-31T19:00:00.000Z,17.08
2022-08-31T19:15:00.000Z,16.97
2022-08-31T19:30:00.000Z,16.89
2022-08-31T19:45:00.000Z,16.84
2022-08-31T20:00:00.000Z,16.87
2022-08-31T20:15:00.000Z,16.83
2022-08-31T20:30:00.000Z,16.83
2022-08-31T20:45:00.000Z,16.86
2022-08-31T21:00:00.000Z,16.81
2022-08-31T21:15:00.000Z,16.85
2022-08-31T21:30:00.000Z,16.89
2022-08-31T21:45:00.000Z,17.22
2022-08-31T22:00:00.000Z,17.02
2022-08-31T22:15:00.000Z,16.9
2022-08-31T22:30:00.000Z,16.46
2022-08-31T22:45:00.000Z,16.14
2022-08-31T23:00:00.000Z,16.12
2022-08-31T23:15:00.000Z,15.86
2022-08-31T23:30:00.000Z,15.84
2022-08-31T23:45:00.000Z,15.64
